Time;durP1;ratioP1;P1;durP2;ratioP2;P2;SDS_P1;SDS_P2;PMS_P1;PMS_P2;Temp;Humidity;BMP_temperature;BMP_pressure;BME280_temperature;BME280_humidity;BME280_pressure;Samples;Min_cycle;Max_cycle;Signal;HPM_P1;HPM_P2
2023/01/22 00:01:28;;;;;;;10.68;4.70;;;0.70;86.20;;;;;;4968312;28;89133;-71
2023/01/22 00:03:53;;;;;;;10.82;4.60;;;0.70;86.20;;;;;;4963420;28;87472;-72
2023/01/22 00:06:20;;;;;;;9.70;4.30;;;0.70;86.30;;;;;;4960714;28;88117;-72
2023/01/22 00:08:49;;;;;;;13.55;4.50;;;0.80;86.20;;;;;;4965835;28;87926;-71
2023/01/22 00:11:16;;;;;;;11.43;4.32;;;0.80;86.20;;;;;;4971404;28;87426;-72
2023/01/22 00:13:42;;;;;;;12.50;4.90;;;0.80;86.60;;;;;;4965216;28;89198;-71
2023/01/22 00:16:11;;;;;;;13.73;5.20;;;0.80;86.30;;;;;;4970442;28;89214;-72
2023/01/22 00:18:37;;;;;;;10.88;4.45;;;0.90;86.40;;;;;;4960423;28;89099;-72
2023/01/22 00:21:02;;;;;;;11.98;4.35;;;0.90;86.20;;;;;;4961086;28;88047;-73
2023/01/22 00:23:28;;;;;;;9.82;4.55;;;0.90;86.20;;;;;;4963847;28;87394;-72
2023/01/22 00:26:12;;;;;;;12.73;5.20;;;0.90;86.10;;;;;;4972661;28;89506;-71
2023/01/22 00:28:40;;;;;;;15.27;5.80;;;0.90;85.90;;;;;;4971715;28;87754;-72
2023/01/22 00:31:06;;;;;;;13.48;5.63;;;1.00;86.00;;;;;;4967152;28;87674;-72
2023/01/22 00:33:33;;;;;;;16.80;6.95;;;1.00;85.70;;;;;;4966919;28;86739;-72
2023/01/22 00:36:06;;;;;;;13.25;5.10;;;1.00;85.80;;;;;;4967837;28;88604;-72
2023/01/22 00:38:32;;;;;;;13.70;5.55;;;1.00;86.10;;;;;;4962526;28;88920;-73
2023/01/22 00:41:03;;;;;;;16.25;5.95;;;1.00;86.20;;;;;;4961347;28;90029;-73
2023/01/22 00:43:30;;;;;;;13.27;5.10;;;1.00;85.90;;;;;;4964185;28;88324;-72
2023/01/22 00:45:56;;;;;;;17.90;7.07;;;1.00;85.90;;;;;;4959748;28;88026;-72
2023/01/22 00:48:22;;;;;;;14.95;5.95;;;1.00;86.70;;;;;;4968091;28;87662;-72
2023/01/22 00:50:47;;;;;;;13.82;5.70;;;1.00;86.00;;;;;;4965713;28;89684;-72
2023/01/22 00:53:13;;;;;;;12.98;5.20;;;1.00;86.10;;;;;;4965638;28;87267;-72
2023/01/22 00:55:39;;;;;;;10.98;4.72;;;1.00;86.30;;;;;;4967660;28;88378;-71
2023/01/22 00:58:05;;;;;;;12.27;4.90;;;1.00;86.10;;;;;;4965656;28;88090;-71
2023/01/22 01:00:31;;;;;;;11.77;4.80;;;1.00;86.10;;;;;;4966525;28;87402;-71
2023/01/22 01:05:41;;;;;;;10.68;4.50;;;1.00;86.10;;;;;;4966218;28;88178;-71
2023/01/22 01:08:07;;;;;;;10.98;4.30;;;1.00;86.60;;;;;;4966445;28;88521;-72
2023/01/22 01:10:33;;;;;;;13.07;4.90;;;1.00;86.30;;;;;;4962066;28;88765;-71
2023/01/22 01:12:58;;;;;;;11.80;5.05;;;1.00;86.50;;;;;;4965759;28;87398;-70
2023/01/22 01:15:24;;;;;;;13.15;4.78;;;1.00;86.20;;;;;;4960697;28;88208;-70
2023/01/22 01:17:50;;;;;;;12.80;4.32;;;1.10;85.90;;;;;;4967183;28;88265;-70
2023/01/22 01:20:15;;;;;;;11.77;5.18;;;1.10;85.90;;;;;;4962530;28;87790;-69
2023/01/22 01:22:41;;;;;;;12.63;5.47;;;1.10;86.00;;;;;;4966116;28;87205;-71
2023/01/22 01:25:07;;;;;;;11.43;4.70;;;1.10;86.40;;;;;;4964679;28;89172;-71
2023/01/22 01:27:32;;;;;;;11.27;5.10;;;1.10;86.00;;;;;;4966465;28;89243;-71
2023/01/22 01:29:58;;;;;;;10.40;4.57;;;1.20;86.00;;;;;;4966516;28;88520;-70
2023/01/22 01:32:24;;;;;;;11.18;4.50;;;1.10;86.00;;;;;;4961763;28;87443;-71
2023/01/22 01:34:50;;;;;;;14.13;4.88;;;1.10;86.20;;;;;;4963718;28;88218;-71
2023/01/22 01:37:16;;;;;;;12.25;4.80;;;1.10;86.00;;;;;;4964020;28;87984;-71
2023/01/22 01:39:42;;;;;;;12.25;4.80;;;1.10;86.20;;;;;;4968216;28;87309;-70
2023/01/22 01:42:08;;;;;;;11.00;4.88;;;1.10;86.20;;;;;;4967367;28;87611;-70
2023/01/22 01:44:35;;;;;;;12.32;5.03;;;1.20;86.20;;;;;;4966429;28;89008;-71
2023/01/22 01:47:07;;;;;;;11.57;4.68;;;1.20;86.10;;;;;;4963615;28;88670;-71
2023/01/22 01:49:37;;;;;;;14.73;5.15;;;1.10;86.40;;;;;;4962508;28;87713;-71
2023/01/22 01:52:10;;;;;;;12.27;5.15;;;1.10;86.60;;;;;;4967545;28;89558;-73
2023/01/22 01:54:36;;;;;;;11.77;4.90;;;1.10;86.70;;;;;;4959889;28;90533;-71
2023/01/22 01:57:18;;;;;;;11.32;4.95;;;1.10;86.50;;;;;;4964172;28;88718;-70
2023/01/22 01:59:45;;;;;;;13.07;5.35;;;1.20;86.70;;;;;;4964003;28;87546;-70
2023/01/22 02:02:11;;;;;;;12.10;4.93;;;1.20;86.60;;;;;;4970104;28;87491;-71
2023/01/22 02:04:36;;;;;;;11.20;4.63;;;1.20;86.80;;;;;;4966346;28;87672;-71
2023/01/22 02:07:05;;;;;;;14.85;5.80;;;1.10;86.90;;;;;;4966096;28;87431;-70
2023/01/22 02:09:31;;;;;;;12.13;5.20;;;1.10;87.20;;;;;;4975178;28;88731;-71
2023/01/22 02:11:57;;;;;;;12.82;5.25;;;1.10;87.10;;;;;;4967176;28;86607;-70
2023/01/22 02:14:31;;;;;;;12.88;5.55;;;1.10;86.90;;;;;;4975695;28;88125;-71
2023/01/22 02:17:04;;;;;;;12.73;5.22;;;1.10;87.20;;;;;;4977642;28;88577;-72
2023/01/22 02:19:30;;;;;;;13.10;5.32;;;1.10;87.40;;;;;;4964672;28;88276;-73
2023/01/22 02:21:56;;;;;;;13.68;5.20;;;1.10;87.20;;;;;;4990305;28;87083;-71
2023/01/22 02:24:21;;;;;;;13.48;5.50;;;1.10;87.50;;;;;;4974307;28;87631;-72
2023/01/22 02:26:47;;;;;;;13.25;5.32;;;1.10;87.30;;;;;;4976202;28;87565;-71
2023/01/22 02:29:14;;;;;;;15.35;5.78;;;1.10;87.20;;;;;;4963339;28;87464;-71
2023/01/22 02:31:41;;;;;;;12.52;5.55;;;1.00;87.50;;;;;;4970261;28;88570;-71
2023/01/22 02:34:08;;;;;;;12.40;5.05;;;1.00;87.70;;;;;;4974503;28;88686;-72
2023/01/22 02:36:36;;;;;;;13.85;5.65;;;1.00;87.90;;;;;;4990955;28;87560;-71
2023/01/22 02:39:02;;;;;;;12.60;4.85;;;1.00;87.60;;;;;;4977992;28;87395;-71
2023/01/22 02:41:28;;;;;;;11.90;4.93;;;0.90;87.60;;;;;;4963002;28;87390;-71
2023/01/22 02:43:53;;;;;;;14.55;5.55;;;1.00;88.10;;;;;;4974293;28;89565;-72
2023/01/22 02:46:19;;;;;;;13.20;5.50;;;1.00;88.00;;;;;;4968908;28;88777;-72
2023/01/22 02:48:45;;;;;;;14.27;5.80;;;1.00;88.00;;;;;;4972110;28;87709;-71
2023/01/22 02:51:11;;;;;;;14.23;5.50;;;1.00;88.00;;;;;;4964772;28;87465;-72
2023/01/22 02:53:36;;;;;;;12.30;5.43;;;1.00;88.00;;;;;;4970423;28;87755;-71
2023/01/22 02:56:07;;;;;;;14.90;5.78;;;1.00;88.00;;;;;;4977515;28;87970;-72
2023/01/22 02:58:34;;;;;;;14.15;5.88;;;1.00;88.10;;;;;;4980896;28;87368;-71
2023/01/22 03:01:19;;;;;;;14.20;5.20;;;1.00;88.20;;;;;;4982182;28;86569;-71
2023/01/22 03:03:55;;;;;;;14.43;6.00;;;0.90;88.70;;;;;;4995549;28;87746;-72
2023/01/22 03:06:24;;;;;;;14.45;5.65;;;1.00;89.00;;;;;;4975402;28;87441;-71
2023/01/22 03:08:59;;;;;;;12.82;5.32;;;1.00;88.70;;;;;;4969662;28;88495;-72
2023/01/22 03:11:27;;;;;;;13.65;5.18;;;1.00;88.50;;;;;;4979881;28;87524;-71
2023/01/22 03:22:09;;;;;;;11.98;5.05;;;0.90;88.90;;;;;;4969062;28;87337;-71
2023/01/22 03:24:35;;;;;;;12.18;5.28;;;0.90;88.60;;;;;;4973335;28;88098;-72
2023/01/22 03:27:01;;;;;;;15.27;5.55;;;0.90;88.70;;;;;;4966347;28;89053;-72
2023/01/22 03:29:27;;;;;;;11.45;4.90;;;0.90;88.60;;;;;;4970801;28;87575;-71
2023/01/22 03:31:52;;;;;;;14.15;5.95;;;0.90;89.00;;;;;;4989805;28;87680;-73
2023/01/22 03:34:20;;;;;;;12.20;5.03;;;0.90;88.90;;;;;;4978715;28;89147;-72
2023/01/22 03:36:46;;;;;;;14.10;5.57;;;0.90;88.90;;;;;;4971804;28;88586;-71
2023/01/22 03:39:12;;;;;;;13.75;5.80;;;0.90;88.70;;;;;;4977156;28;87554;-71
2023/01/22 03:41:38;;;;;;;13.45;5.75;;;0.90;88.90;;;;;;4978304;28;87633;-72
2023/01/22 03:44:05;;;;;;;14.10;5.85;;;0.90;88.70;;;;;;4970664;28;88683;-72
2023/01/22 03:46:33;;;;;;;12.45;5.28;;;1.00;88.80;;;;;;4978759;28;87777;-71
2023/01/22 03:48:59;;;;;;;14.13;4.95;;;1.00;88.60;;;;;;4974413;28;87655;-71
2023/01/22 03:51:24;;;;;;;12.93;5.50;;;1.00;88.50;;;;;;4965860;28;86629;-71
2023/01/22 03:53:50;;;;;;;12.85;5.47;;;1.00;88.40;;;;;;4977092;28;88029;-72
2023/01/22 03:56:18;;;;;;;14.43;5.80;;;1.10;88.40;;;;;;4976090;28;88084;-72
2023/01/22 03:58:44;;;;;;;13.75;4.95;;;1.10;88.20;;;;;;4974446;28;88614;-72
2023/01/22 04:01:13;;;;;;;13.90;5.63;;;1.00;88.30;;;;;;4969878;28;87523;-72
2023/01/22 04:03:39;;;;;;;13.65;5.75;;;1.10;88.40;;;;;;4965361;28;87689;-72
2023/01/22 04:06:05;;;;;;;13.55;5.55;;;1.10;88.40;;;;;;4962030;28;87957;-72
2023/01/22 04:08:32;;;;;;;14.68;5.88;;;1.10;88.60;;;;;;4976881;28;87537;-71
2023/01/22 04:10:59;;;;;;;15.82;5.82;;;1.00;88.90;;;;;;4971573;28;87787;-72
2023/01/22 04:13:26;;;;;;;14.82;5.78;;;1.10;89.00;;;;;;4985234;28;88168;-71
2023/01/22 04:15:52;;;;;;;14.38;5.70;;;1.20;88.80;;;;;;4983808;28;88041;-71
2023/01/22 04:18:18;;;;;;;13.25;5.68;;;1.20;88.60;;;;;;4997620;28;88568;-72
2023/01/22 04:20:45;;;;;;;13.15;5.30;;;1.20;88.70;;;;;;4993947;28;87451;-71
2023/01/22 04:23:11;;;;;;;13.65;5.70;;;1.20;88.40;;;;;;4979267;28;88334;-71
2023/01/22 04:25:37;;;;;;;15.77;6.20;;;1.10;89.00;;;;;;4977613;28;88229;-72
2023/01/22 04:28:03;;;;;;;12.65;5.70;;;1.10;89.50;;;;;;4973245;28;87435;-72
2023/01/22 04:30:29;;;;;;;13.05;6.00;;;1.00;89.60;;;;;;4979366;28;87420;-72
2023/01/22 04:32:55;;;;;;;12.25;5.45;;;0.90;89.90;;;;;;4997046;28;88120;-72
2023/01/22 04:35:21;;;;;;;14.32;6.53;;;0.90;90.20;;;;;;4994482;28;87674;-72
2023/01/22 04:37:47;;;;;;;14.60;6.03;;;0.80;90.10;;;;;;4979106;28;87563;-71
2023/01/22 04:40:13;;;;;;;13.10;5.50;;;0.80;90.20;;;;;;4980274;28;86674;-72
2023/01/22 04:42:38;;;;;;;14.32;6.03;;;0.70;90.10;;;;;;4968992;28;89482;-71
2023/01/22 04:45:04;;;;;;;13.68;5.40;;;0.60;90.30;;;;;;4971457;28;87430;-71
2023/01/22 04:47:30;;;;;;;14.35;5.85;;;0.50;90.50;;;;;;4972908;28;90115;-72
2023/01/22 04:49:56;;;;;;;16.00;6.13;;;0.40;90.70;;;;;;4977595;28;87183;-72
2023/01/22 04:52:21;;;;;;;13.75;6.07;;;0.40;90.90;;;;;;4977378;28;87765;-72
2023/01/22 04:54:47;;;;;;;16.50;6.13;;;0.40;90.80;;;;;;4971980;28;87569;-71
2023/01/22 04:57:12;;;;;;;14.05;5.50;;;0.40;90.80;;;;;;4965601;28;87652;-71
2023/01/22 04:59:38;;;;;;;15.90;6.28;;;0.40;90.80;;;;;;4966740;28;89120;-71
2023/01/22 05:02:04;;;;;;;13.32;5.85;;;0.40;91.10;;;;;;4965337;28;89625;-71
2023/01/22 05:04:29;;;;;;;14.18;5.82;;;0.40;91.10;;;;;;4970408;28;88004;-70
2023/01/22 05:06:55;;;;;;;16.52;6.80;;;0.40;91.00;;;;;;4970518;28;89296;-70
2023/01/22 05:09:21;;;;;;;17.80;6.07;;;0.50;90.80;;;;;;4965268;28;87393;-71
2023/01/22 05:11:47;;;;;;;14.63;6.32;;;0.60;91.10;;;;;;4965010;28;89104;-71
2023/01/22 05:14:13;;;;;;;14.63;6.75;;;0.60;90.90;;;;;;4972745;28;87527;-72
2023/01/22 05:16:38;;;;;;;14.98;6.32;;;0.50;91.00;;;;;;4990384;28;89126;-72
2023/01/22 05:19:04;;;;;;;15.10;6.20;;;0.60;91.10;;;;;;4969722;28;87477;-71
2023/01/22 05:21:29;;;;;;;16.10;5.90;;;0.70;90.90;;;;;;4969167;28;88173;-73
2023/01/22 05:23:55;;;;;;;14.43;6.50;;;0.70;90.70;;;;;;4977135;28;88976;-70
2023/01/22 05:26:21;;;;;;;18.13;6.72;;;0.80;90.70;;;;;;4982190;28;87638;-70
2023/01/22 05:28:47;;;;;;;14.95;6.50;;;0.80;90.50;;;;;;4977775;28;86513;-70
2023/01/22 05:31:12;;;;;;;14.13;6.35;;;0.90;90.40;;;;;;4976091;28;88156;-70
2023/01/22 05:33:39;;;;;;;13.30;5.70;;;0.90;90.30;;;;;;4968874;28;87253;-70
2023/01/22 05:36:06;;;;;;;15.00;6.35;;;0.90;90.20;;;;;;4971017;28;90110;-71
2023/01/22 05:38:32;;;;;;;15.85;6.30;;;0.90;90.20;;;;;;4976988;28;87511;-70
2023/01/22 05:40:58;;;;;;;15.20;6.38;;;0.80;90.10;;;;;;4974359;28;88714;-70
2023/01/22 05:43:24;;;;;;;19.42;6.40;;;0.80;90.20;;;;;;4965829;28;88374;-70
2023/01/22 05:45:50;;;;;;;16.38;6.97;;;0.80;90.20;;;;;;4975782;28;87128;-70
2023/01/22 05:48:15;;;;;;;15.32;6.28;;;0.80;90.50;;;;;;4975314;28;87383;-69
2023/01/22 05:50:41;;;;;;;14.07;6.20;;;0.80;90.40;;;;;;4979581;28;88101;-69
2023/01/22 05:53:07;;;;;;;14.93;5.85;;;0.80;90.30;;;;;;4978409;28;88225;-71
2023/01/22 05:55:33;;;;;;;14.40;5.90;;;0.80;90.00;;;;;;4965996;28;87938;-71
2023/01/22 05:57:59;;;;;;;15.50;6.63;;;0.70;90.20;;;;;;4977342;28;88519;-69
2023/01/22 06:00:25;;;;;;;15.13;6.53;;;0.60;90.30;;;;;;4974286;28;88587;-70
2023/01/22 06:02:59;;;;;;;14.75;5.82;;;0.60;90.40;;;;;;4975860;28;88167;-71
2023/01/22 06:05:25;;;;;;;16.70;6.72;;;0.60;90.60;;;;;;4977166;28;87363;-72
2023/01/22 06:07:50;;;;;;;16.23;6.32;;;0.60;90.50;;;;;;4975020;28;87207;-69
2023/01/22 06:10:17;;;;;;;15.77;6.25;;;0.70;90.60;;;;;;4971531;28;87751;-71
2023/01/22 06:12:43;;;;;;;16.48;6.28;;;0.70;90.40;;;;;;4960969;28;89113;-69
2023/01/22 06:15:09;;;;;;;15.73;6.47;;;0.70;90.40;;;;;;4979555;28;87571;-69
2023/01/22 06:17:35;;;;;;;16.50;6.55;;;0.70;90.70;;;;;;4978348;28;86796;-72
2023/01/22 06:20:01;;;;;;;16.17;6.68;;;0.80;90.80;;;;;;4990269;28;87199;-70
2023/01/22 06:22:27;;;;;;;15.55;6.47;;;0.80;90.80;;;;;;4975315;28;87186;-71
2023/01/22 06:24:52;;;;;;;16.20;6.40;;;0.80;90.70;;;;;;4971707;28;88109;-72
2023/01/22 06:27:18;;;;;;;13.52;5.55;;;0.80;90.60;;;;;;4967818;28;87573;-72
2023/01/22 06:29:44;;;;;;;15.35;6.40;;;0.80;90.60;;;;;;4992297;28;88349;-72
2023/01/22 06:32:10;;;;;;;15.63;6.78;;;0.80;90.50;;;;;;4976551;28;87995;-71
2023/01/22 06:34:37;;;;;;;17.75;6.72;;;0.70;90.60;;;;;;4977402;28;87176;-71
2023/01/22 06:37:02;;;;;;;15.50;6.25;;;0.70;90.90;;;;;;4976990;28;87518;-71
2023/01/22 06:39:28;;;;;;;16.67;7.10;;;0.70;90.90;;;;;;4965675;28;88198;-70
2023/01/22 06:41:54;;;;;;;15.70;6.57;;;0.70;90.80;;;;;;4965576;28;87898;-71
2023/01/22 06:44:19;;;;;;;21.38;7.55;;;0.70;90.70;;;;;;4969754;28;89171;-72
2023/01/22 06:46:46;;;;;;;15.15;6.05;;;0.80;90.50;;;;;;4962573;28;88223;-72
2023/01/22 06:49:12;;;;;;;14.30;6.00;;;0.70;90.80;;;;;;4960938;28;88464;-72
2023/01/22 06:51:38;;;;;;;15.60;6.25;;;0.70;90.70;;;;;;4962134;28;89442;-72
2023/01/22 06:54:04;;;;;;;14.88;6.43;;;0.60;90.70;;;;;;4970205;28;87318;-71
2023/01/22 06:56:29;;;;;;;16.30;6.70;;;0.60;90.70;;;;;;4972739;28;87198;-72
2023/01/22 06:58:55;;;;;;;17.95;7.07;;;0.70;90.70;;;;;;4953694;28;89238;-73
2023/01/22 07:01:21;;;;;;;16.67;6.57;;;0.70;90.60;;;;;;4960292;28;89872;-72
2023/01/22 07:03:47;;;;;;;16.10;6.72;;;0.70;90.60;;;;;;4956708;28;89274;-73
2023/01/22 07:06:14;;;;;;;16.65;7.25;;;0.80;90.50;;;;;;4967623;28;86814;-70
2023/01/22 07:08:40;;;;;;;18.88;6.10;;;0.80;90.50;;;;;;4959236;28;89953;-71
2023/01/22 07:11:06;;;;;;;20.92;7.00;;;0.80;90.70;;;;;;4962100;28;89124;-70
2023/01/22 07:13:32;;;;;;;18.73;6.85;;;0.80;91.10;;;;;;4956472;28;88635;-70
2023/01/22 07:16:02;;;;;;;17.55;7.50;;;0.90;90.70;;;;;;4965718;28;87883;-71
2023/01/22 07:18:28;;;;;;;17.40;6.93;;;0.90;90.50;;;;;;4962517;28;91074;-70
2023/01/22 07:20:54;;;;;;;18.23;6.68;;;0.90;90.50;;;;;;4958153;28;88544;-71
2023/01/22 07:23:21;;;;;;;17.42;6.35;;;0.80;90.60;;;;;;4967123;28;87626;-71
2023/01/22 07:25:47;;;;;;;17.20;6.90;;;0.80;90.80;;;;;;4968428;28;87828;-70
2023/01/22 07:28:14;;;;;;;26.80;7.22;;;0.80;90.60;;;;;;4962287;28;87685;-70
2023/01/22 07:30:45;;;;;;;22.02;7.70;;;0.90;91.00;;;;;;4967061;28;90271;-70
2023/01/22 07:33:12;;;;;;;20.55;5.97;;;1.10;91.00;;;;;;4971141;28;87600;-70
2023/01/22 07:35:38;;;;;;;25.98;7.07;;;1.40;90.10;;;;;;4970991;28;87529;-71
2023/01/22 07:38:05;;;;;;;20.30;7.25;;;1.70;89.60;;;;;;4984773;28;90837;-71
2023/01/22 07:40:31;;;;;;;23.88;7.30;;;2.10;88.30;;;;;;4990212;28;89380;-71
2023/01/22 07:42:56;;;;;;;24.80;7.43;;;2.50;86.80;;;;;;4978419;28;87423;-72
2023/01/22 07:45:24;;;;;;;24.67;6.88;;;2.90;85.40;;;;;;4982822;28;87535;-71
2023/01/22 07:47:57;;;;;;;27.90;6.78;;;3.30;83.50;;;;;;4972960;28;90925;-71
2023/01/22 07:50:29;;;;;;;20.92;6.43;;;3.40;81.50;;;;;;4978660;28;91419;-71
2023/01/22 07:52:55;;;;;;;23.15;6.97;;;3.30;82.40;;;;;;4974149;28;87549;-71
2023/01/22 07:55:21;;;;;;;29.88;7.70;;;3.30;82.30;;;;;;4968698;28;86615;-71
2023/01/22 07:57:47;;;;;;;23.75;7.80;;;3.10;82.60;;;;;;4974523;28;89241;-70
2023/01/22 08:00:14;;;;;;;20.02;7.30;;;2.90;83.20;;;;;;4986714;28;87431;-72
2023/01/22 08:02:41;;;;;;;23.02;7.57;;;2.70;84.00;;;;;;4981465;28;88997;-70
2023/01/22 08:05:09;;;;;;;25.15;7.97;;;2.50;84.40;;;;;;4976114;28;87270;-70
2023/01/22 08:07:35;;;;;;;18.73;7.85;;;2.50;85.30;;;;;;4979379;28;87726;-70
2023/01/22 08:10:00;;;;;;;19.55;8.48;;;2.40;84.60;;;;;;4976779;28;88222;-70
2023/01/22 08:12:26;;;;;;;16.92;6.57;;;2.30;84.90;;;;;;4974448;28;87635;-72
2023/01/22 08:14:52;;;;;;;18.90;7.43;;;2.20;84.50;;;;;;4971429;28;88280;-72
2023/01/22 08:17:17;;;;;;;24.00;8.32;;;2.20;85.00;;;;;;4971629;28;88150;-72
2023/01/22 08:19:43;;;;;;;16.02;7.35;;;2.20;85.10;;;;;;4982517;28;87372;-70
2023/01/22 08:22:09;;;;;;;18.80;8.13;;;2.20;84.80;;;;;;4992903;28;87730;-70
2023/01/22 08:24:35;;;;;;;21.23;8.45;;;2.30;84.60;;;;;;4980877;28;87151;-70
2023/01/22 08:27:01;;;;;;;23.10;8.57;;;2.50;84.20;;;;;;4965083;28;88458;-72
2023/01/22 08:29:27;;;;;;;17.42;8.25;;;3.00;83.00;;;;;;4977594;28;87469;-72
2023/01/22 08:31:52;;;;;;;18.52;8.40;;;3.50;81.00;;;;;;4991473;28;87294;-70
2023/01/22 08:34:19;;;;;;;24.92;9.52;;;3.80;80.10;;;;;;4978385;28;87384;-71
2023/01/22 08:36:45;;;;;;;18.02;8.13;;;4.00;78.60;;;;;;4995270;28;87790;-70
2023/01/22 08:39:12;;;;;;;18.65;8.57;;;4.10;78.30;;;;;;4999112;28;87396;-72
2023/01/22 08:41:38;;;;;;;19.40;8.52;;;4.20;77.60;;;;;;4998029;28;87807;-70
2023/01/22 08:44:04;;;;;;;16.75;8.00;;;4.80;76.40;;;;;;4969203;28;86856;-72
2023/01/22 08:46:30;;;;;;;17.02;7.90;;;5.40;74.60;;;;;;4978689;28;88357;-72
2023/01/22 08:48:55;;;;;;;15.90;7.63;;;5.70;72.50;;;;;;4974944;28;87779;-72
2023/01/22 08:51:23;;;;;;;17.45;8.65;;;6.00;73.10;;;;;;4977955;28;89743;-72
2023/01/22 08:53:50;;;;;;;21.98;9.50;;;7.40;69.50;;;;;;4976159;28;87282;-72
2023/01/22 08:56:15;;;;;;;16.42;8.80;;;8.60;65.70;;;;;;4971062;28;87699;-71
2023/01/22 08:58:41;;;;;;;16.33;8.10;;;9.30;62.60;;;;;;4996936;28;88010;-70
2023/01/22 09:01:12;;;;;;;14.25;6.80;;;9.10;61.90;;;;;;4971465;28;88801;-72
2023/01/22 09:03:38;;;;;;;14.18;7.75;;;8.90;61.20;;;;;;4968202;28;87296;-72
2023/01/22 09:06:04;;;;;;;14.93;6.68;;;8.10;61.20;;;;;;4978860;28;88220;-72
2023/01/22 09:08:30;;;;;;;19.92;9.57;;;8.10;62.40;;;;;;4979411;28;87739;-72
2023/01/22 09:10:56;;;;;;;16.92;9.27;;;7.90;62.40;;;;;;4978436;28;87412;-72
2023/01/22 09:13:21;;;;;;;17.30;9.32;;;7.40;63.40;;;;;;4988560;28;87474;-72
2023/01/22 09:15:47;;;;;;;16.20;9.45;;;6.90;64.90;;;;;;4994270;28;89284;-72
2023/01/22 09:18:13;;;;;;;20.83;9.50;;;6.40;66.60;;;;;;4967822;28;88299;-72
2023/01/22 09:20:38;;;;;;;18.42;10.30;;;6.10;67.50;;;;;;4971820;28;87429;-71
2023/01/22 09:23:04;;;;;;;20.95;9.70;;;6.00;68.10;;;;;;4978606;28;87480;-72
2023/01/22 09:25:30;;;;;;;22.35;10.50;;;5.70;68.80;;;;;;4978330;28;88410;-72
2023/01/22 09:27:57;;;;;;;17.98;9.20;;;5.70;70.00;;;;;;4980245;28;87795;-72
2023/01/22 09:30:25;;;;;;;19.48;9.75;;;5.70;69.40;;;;;;4992197;28;87533;-72
2023/01/22 09:32:51;;;;;;;17.77;9.48;;;5.70;68.80;;;;;;4977078;28;86693;-71
2023/01/22 09:35:16;;;;;;;22.48;10.10;;;5.80;69.70;;;;;;4972430;28;87734;-70
2023/01/22 09:37:42;;;;;;;20.88;9.90;;;5.80;69.80;;;;;;4975921;28;87604;-71
2023/01/22 09:40:25;;;;;;;21.25;10.05;;;5.90;68.50;;;;;;4960977;28;88279;-72
2023/01/22 09:42:53;;;;;;;;;;;6.20;68.80;;;;;;4985903;28;87499;-72
2023/01/22 09:45:22;;;;;;;19.80;9.77;;;6.70;66.80;;;;;;4978595;28;87562;-72
2023/01/22 09:47:53;;;;;;;19.42;9.82;;;6.60;66.60;;;;;;4976719;28;88486;-72
2023/01/22 09:50:20;;;;;;;;;;;6.30;67.60;;;;;;4975945;28;87971;-72
2023/01/22 09:52:48;;;;;;;20.63;9.43;;;6.00;67.40;;;;;;4986907;28;87570;-72
2023/01/22 09:55:16;;;;;;;18.90;9.02;;;5.90;68.10;;;;;;4981503;28;88218;-71
2023/01/22 09:57:47;;;;;;;18.27;8.90;;;5.60;69.00;;;;;;4994333;28;87953;-70
2023/01/22 10:00:23;;;;;;;19.65;9.38;;;5.80;69.20;;;;;;4974108;28;88645;-72
2023/01/22 10:03:08;;;;;;;20.05;9.35;;;6.20;67.70;;;;;;4971527;28;87377;-72
2023/01/22 10:05:41;;;;;;;18.98;9.30;;;6.30;68.20;;;;;;4988628;28;89184;-72
2023/01/22 10:08:25;;;;;;;17.98;9.23;;;6.40;67.60;;;;;;4961503;28;90105;-71
2023/01/22 10:10:51;;;;;;;20.30;8.85;;;6.40;66.80;;;;;;4977111;28;87567;-71
2023/01/22 10:13:28;;;;;;;15.65;8.82;;;6.30;67.10;;;;;;4991462;28;87540;-71
2023/01/22 10:15:55;;;;;;;17.88;8.48;;;6.60;65.90;;;;;;4977497;28;88318;-71
2023/01/22 10:18:33;;;;;;;16.77;8.10;;;6.70;65.10;;;;;;4967607;28;87491;-71
2023/01/22 10:21:05;;;;;;;16.35;8.75;;;6.70;65.20;;;;;;4968305;28;87409;-72
2023/01/22 10:23:33;;;;;;;15.32;7.80;;;6.80;65.20;;;;;;4980177;28;88190;-71
2023/01/22 10:26:16;;;;;;;15.13;7.53;;;6.80;65.20;;;;;;4982385;28;88158;-72
2023/01/22 10:28:49;;;;;;;12.85;6.97;;;6.90;63.50;;;;;;4964342;28;89923;-72
2023/01/22 10:31:22;;;;;;;12.98;7.03;;;6.70;63.20;;;;;;4981351;28;88651;-72
2023/01/22 10:33:55;;;;;;;15.38;7.70;;;6.50;63.80;;;;;;4985230;28;87682;-71
2023/01/22 10:36:21;;;;;;;14.40;7.43;;;6.30;64.10;;;;;;4961977;28;87667;-71
2023/01/22 10:38:47;;;;;;;14.52;7.40;;;6.00;64.60;;;;;;4979310;28;87409;-71
2023/01/22 10:41:17;;;;;;;13.52;6.95;;;6.00;63.90;;;;;;4972763;28;87361;-71
2023/01/22 10:43:43;;;;;;;;;;;6.10;64.60;;;;;;4979173;28;87132;-71
2023/01/22 10:46:22;;;;;;;15.43;7.47;;;5.90;65.20;;;;;;4979636;28;88966;-71
2023/01/22 10:49:02;;;;;;;12.00;6.28;;;6.20;65.00;;;;;;4984332;28;88030;-71
2023/01/22 10:51:41;;;;;;;12.65;6.53;;;6.20;63.90;;;;;;4983186;28;87099;-71
2023/01/22 10:54:40;;;;;;;12.60;6.43;;;6.20;63.60;;;;;;4991418;28;89128;-71
2023/01/22 10:57:19;;;;;;;13.35;6.68;;;6.40;62.90;;;;;;4968729;28;88649;-71
2023/01/22 10:59:50;;;;;;;11.50;5.60;;;6.60;62.10;;;;;;4968631;28;88300;-71
2023/01/22 11:02:22;;;;;;;14.30;6.72;;;6.60;61.80;;;;;;4989124;28;87311;-71
2023/01/22 11:04:48;;;;;;;13.07;6.40;;;6.30;62.70;;;;;;4997399;28;87234;-71
2023/01/22 11:07:18;;;;;;;14.27;6.95;;;6.10;63.30;;;;;;4996639;28;88106;-71
2023/01/22 11:09:53;;;;;;;13.77;6.28;;;5.90;64.70;;;;;;4996215;28;87741;-72
2023/01/22 11:12:25;;;;;;;14.63;6.05;;;5.70;63.90;;;;;;4965843;28;87836;-71
2023/01/22 11:15:18;;;;;;;13.90;6.90;;;5.50;65.40;;;;;;4971965;28;87004;-71
2023/01/22 11:17:49;;;;;;;15.40;7.28;;;5.50;66.00;;;;;;4967558;28;88804;-71
2023/01/22 11:20:23;;;;;;;13.55;6.68;;;5.60;66.70;;;;;;4985086;28;87457;-71
2023/01/22 11:23:09;;;;;;;14.32;6.93;;;5.80;66.50;;;;;;4997012;28;88435;-71
2023/01/22 11:26:04;;;;;;;14.20;6.95;;;6.10;65.40;;;;;;4997738;28;87280;-71
2023/01/22 11:28:42;;;;;;;13.80;6.13;;;6.00;65.30;;;;;;4976449;28;88069;-71
2023/01/22 11:31:45;;;;;;;13.65;6.40;;;5.80;66.10;;;;;;4975796;28;87955;-71
2023/01/22 11:34:32;;;;;;;12.95;6.53;;;5.70;66.70;;;;;;4978124;28;89100;-71
2023/01/22 11:37:19;;;;;;;13.07;5.80;;;5.70;66.60;;;;;;4969186;28;87338;-71
2023/01/22 11:40:01;;;;;;;13.25;6.40;;;5.50;67.10;;;;;;4985674;28;88240;-71
2023/01/22 11:42:36;;;;;;;12.82;6.32;;;5.70;66.90;;;;;;4984808;28;86918;-71
2023/01/22 11:45:17;;;;;;;14.07;6.32;;;5.70;67.60;;;;;;4993297;28;87150;-71
2023/01/22 11:48:11;;;;;;;12.93;5.60;;;5.40;65.70;;;;;;4986380;28;87349;-71
2023/01/22 11:51:06;;;;;;;13.05;6.38;;;5.10;67.20;;;;;;4965932;28;90325;-71
2023/01/22 11:53:50;;;;;;;14.45;6.40;;;5.00;67.20;;;;;;4978370;28;88116;-71
2023/01/22 11:56:35;;;;;;;13.90;6.57;;;5.00;67.60;;;;;;4980745;28;87483;-71
2023/01/22 11:59:00;;;;;;;12.32;6.03;;;5.00;66.60;;;;;;4979261;28;87417;-71
2023/01/22 12:02:03;;;;;;;15.60;7.45;;;5.10;66.90;;;;;;4978027;28;87655;-71
2023/01/22 12:04:47;;;;;;;12.15;5.60;;;5.20;67.00;;;;;;4987306;28;88634;-71
2023/01/22 12:07:48;;;;;;;12.60;5.70;;;5.30;65.90;;;;;;4967249;28;87613;-71
2023/01/22 12:10:38;;;;;;;12.98;5.93;;;5.40;65.80;;;;;;4974396;28;88694;-71
2023/01/22 12:13:42;;;;;;;12.02;6.28;;;5.60;64.10;;;;;;4980119;28;88147;-71
2023/01/22 12:16:32;;;;;;;11.38;5.50;;;5.60;65.20;;;;;;4970679;28;87909;-71
2023/01/22 12:19:06;;;;;;;13.85;6.28;;;5.30;66.10;;;;;;4973074;28;88509;-71
2023/01/22 12:21:43;;;;;;;11.88;5.70;;;5.10;66.10;;;;;;4978750;28;87260;-71
2023/01/22 12:24:12;;;;;;;11.27;4.93;;;5.00;67.20;;;;;;4978948;28;87612;-71
2023/01/22 12:26:51;;;;;;;11.95;5.90;;;5.00;67.20;;;;;;4997270;28;87336;-70
2023/01/22 12:29:36;;;;;;;10.70;5.30;;;4.90;67.10;;;;;;4981338;28;87521;-71
2023/01/22 12:32:10;;;;;;;11.88;5.78;;;4.80;67.30;;;;;;4981288;28;87101;-70
2023/01/22 12:34:46;;;;;;;10.60;5.00;;;4.90;67.50;;;;;;4979388;28;87706;-72
2023/01/22 12:37:16;;;;;;;10.35;4.78;;;4.80;66.60;;;;;;4977364;28;89318;-72
2023/01/22 12:40:03;;;;;;;11.82;6.07;;;4.80;66.70;;;;;;4982041;28;87836;-72
2023/01/22 12:43:05;;;;;;;10.60;4.20;;;5.00;66.20;;;;;;4978614;28;87600;-73
2023/01/22 12:45:30;;;;;;;9.63;4.47;;;5.00;65.00;;;;;;4979140;28;89336;-70
2023/01/22 12:48:04;;;;;;;11.15;4.75;;;5.00;64.20;;;;;;4974936;28;88254;-70
2023/01/22 12:50:30;;;;;;;9.40;4.78;;;5.00;64.40;;;;;;4991565;28;87039;-70
2023/01/22 12:53:03;;;;;;;9.00;4.63;;;5.20;65.80;;;;;;4981547;28;88792;-72
2023/01/22 12:55:33;;;;;;;9.27;4.70;;;5.40;64.20;;;;;;4973875;28;87759;-72
2023/01/22 12:58:00;;;;;;;9.95;4.75;;;5.30;62.50;;;;;;4970968;28;87409;-72
2023/01/22 13:00:33;;;;;;;11.13;4.82;;;5.30;63.60;;;;;;4983706;28;87050;-71
2023/01/22 13:03:01;;;;;;;10.57;5.05;;;5.60;64.80;;;;;;4966516;28;86612;-71
2023/01/22 13:05:29;;;;;;;8.27;4.30;;;5.80;64.10;;;;;;4971698;28;88507;-70
2023/01/22 13:08:16;;;;;;;9.23;4.57;;;5.80;62.60;;;;;;4981424;28;87512;-72
2023/01/22 13:11:12;;;;;;;8.80;3.63;;;5.90;62.00;;;;;;4988507;28;88223;-72